Time;durP1;ratioP1;P1;durP2;ratioP2;P2;SDS_P1;SDS_P2;PMS_P1;PMS_P2;Temp;Humidity;BMP_temperature;BMP_pressure;BME280_temperature;BME280_humidity;BME280_pressure;Samples;Min_cycle;Max_cycle;Signal;HPM_P1;HPM_P2
2024/01/12 06:55:30;;;;;;;80.07;26.90;;;9.70;59.50;;;;;;4955733;29;20206;-96
2024/01/12 06:58:00;;;;;;;105.93;22.00;;;9.70;59.70;;;;;;4944464;29;20214;-96
2024/01/12 07:00:42;;;;;;;73.43;19.30;;;9.70;59.60;;;;;;4950507;28;20222;-96
2024/01/12 07:03:21;;;;;;;85.07;19.03;;;9.70;59.90;;;;;;4951350;28;20236;-96
2024/01/12 07:05:55;;;;;;;89.03;19.03;;;9.70;59.90;;;;;;4935585;29;20291;-96
2024/01/12 07:11:59;;;;;;;82.20;20.27;;;9.70;60.40;;;;;;4863958;29;20245;-96
2024/01/12 07:14:28;;;;;;;108.20;23.80;;;9.50;59.40;;;;;;4879326;29;20228;-96
2024/01/12 07:16:58;;;;;;;81.93;30.43;;;9.60;59.80;;;;;;4931191;29;20215;-96
2024/01/12 07:19:26;;;;;;;81.80;48.03;;;9.70;60.00;;;;;;4933592;29;20219;-96
2024/01/12 07:21:55;;;;;;;105.63;23.63;;;9.40;59.70;;;;;;4931890;29;20275;-96
2024/01/12 07:24:37;;;;;;;101.17;38.93;;;9.70;60.10;;;;;;4933752;29;20210;-95
2024/01/12 07:27:07;;;;;;;68.93;31.50;;;9.50;59.90;;;;;;4934947;29;20234;-96
2024/01/12 07:29:35;;;;;;;100.33;33.80;;;9.70;59.80;;;;;;4933218;29;20220;-96
2024/01/12 07:32:04;;;;;;;100.83;48.70;;;9.80;60.10;;;;;;4929367;29;20333;-95
2024/01/12 07:34:42;;;;;;;79.27;26.00;;;9.80;60.10;;;;;;4933372;29;20414;-95
2024/01/12 07:37:10;;;;;;;90.40;39.93;;;9.70;60.40;;;;;;4934613;29;20266;-95
2024/01/12 07:39:39;;;;;;;140.43;29.97;;;9.60;59.80;;;;;;4930823;29;20210;-95
2024/01/12 07:42:09;;;;;;;102.30;39.53;;;9.70;60.20;;;;;;4930470;29;20293;-95
2024/01/12 07:44:38;;;;;;;87.83;38.80;;;9.70;60.00;;;;;;4929576;29;20211;-95
2024/01/12 07:47:09;;;;;;;81.50;37.07;;;9.70;60.00;;;;;;4919976;29;20299;-95
2024/01/12 07:49:37;;;;;;;93.17;25.37;;;9.80;60.10;;;;;;4927154;29;20218;-96
2024/01/12 07:52:07;;;;;;;88.37;31.70;;;9.40;59.70;;;;;;4940071;29;20233;-96
2024/01/12 07:54:39;;;;;;;95.67;45.63;;;9.80;60.20;;;;;;4952834;29;20210;-95
2024/01/12 07:57:11;;;;;;;69.00;24.23;;;9.70;60.00;;;;;;4952472;28;20219;-95
2024/01/12 07:59:45;;;;;;;66.80;21.23;;;9.70;60.20;;;;;;4955867;29;20188;-96
2024/01/12 08:02:18;;;;;;;64.53;26.70;;;9.80;59.90;;;;;;4949886;29;20206;-96
2024/01/12 08:04:49;;;;;;;80.67;31.97;;;9.80;60.10;;;;;;4950107;29;20215;-95
2024/01/12 08:07:19;;;;;;;72.40;24.93;;;9.70;60.00;;;;;;4950967;29;20207;-96
2024/01/12 08:09:50;;;;;;;107.40;33.20;;;9.80;60.10;;;;;;4953765;29;20206;-95
2024/01/12 08:12:26;;;;;;;79.13;60.67;;;9.70;60.00;;;;;;4954571;29;20231;-95
2024/01/12 08:14:57;;;;;;;77.20;27.03;;;9.80;60.30;;;;;;4956139;29;20188;-96
2024/01/12 08:17:27;;;;;;;81.23;31.07;;;9.30;59.50;;;;;;4942091;29;20223;-95
2024/01/12 08:20:01;;;;;;;87.33;24.90;;;9.40;59.70;;;;;;4954476;29;20287;-95
2024/01/12 08:22:29;;;;;;;94.40;44.67;;;9.80;60.20;;;;;;4946023;29;20246;-95
2024/01/12 08:24:58;;;;;;;91.57;25.30;;;9.80;60.00;;;;;;4936705;29;20558;-95
2024/01/12 08:27:27;;;;;;;85.73;35.73;;;9.70;59.90;;;;;;4936029;29;20222;-95
2024/01/12 08:29:57;;;;;;;103.23;36.57;;;9.80;60.00;;;;;;4934072;29;20274;-95
2024/01/12 08:32:26;;;;;;;99.87;40.27;;;9.10;59.60;;;;;;4936736;29;20237;-95
2024/01/12 08:35:00;;;;;;;98.00;32.80;;;9.80;60.10;;;;;;4941479;29;20278;-95
2024/01/12 08:37:30;;;;;;;71.47;26.83;;;9.70;60.40;;;;;;4943300;29;20245;-96
2024/01/12 08:40:00;;;;;;;89.53;26.23;;;9.80;60.20;;;;;;4945355;29;20203;-95
2024/01/12 08:42:34;;;;;;;112.10;42.53;;;9.70;60.10;;;;;;4928887;29;20538;-96
2024/01/12 08:45:08;;;;;;;94.63;29.07;;;11.00;60.10;;;;;;4943281;29;20263;-95
2024/01/12 08:47:37;;;;;;;113.13;58.50;;;9.80;60.40;;;;;;4931434;29;20247;-95
2024/01/12 08:50:07;;;;;;;94.90;49.40;;;9.80;60.20;;;;;;4946787;29;20289;-95
2024/01/12 08:52:37;;;;;;;122.03;45.97;;;9.70;60.40;;;;;;4943368;29;20246;-96
2024/01/12 08:55:08;;;;;;;102.57;38.57;;;9.80;60.20;;;;;;4938050;29;20215;-96
2024/01/12 08:57:46;;;;;;;91.03;28.50;;;9.90;60.40;;;;;;4946107;29;20239;-96
2024/01/12 09:00:16;;;;;;;100.57;32.00;;;9.70;60.40;;;;;;4939255;29;20267;-95
2024/01/12 09:02:46;;;;;;;118.00;43.37;;;10.10;59.70;;;;;;4948462;29;20250;-96
2024/01/12 09:05:14;;;;;;;120.20;36.07;;;9.80;60.30;;;;;;4946085;29;20212;-96
2024/01/12 09:10:34;;;;;;;100.40;39.13;;;9.80;60.30;;;;;;4942946;29;20214;-96
2024/01/12 09:13:08;;;;;;;68.67;23.13;;;9.90;60.40;;;;;;4935593;29;20304;-96
2024/01/12 09:15:40;;;;;;;73.77;31.17;;;9.90;60.30;;;;;;4934263;29;20215;-96
2024/01/12 09:18:09;;;;;;;86.03;35.57;;;9.90;60.40;;;;;;4937155;29;20649;-95
2024/01/12 09:20:37;;;;;;;102.23;38.00;;;9.90;60.40;;;;;;4936465;29;20216;-96
2024/01/12 09:23:08;;;;;;;88.73;34.00;;;9.90;60.20;;;;;;4936489;29;20317;-95
2024/01/12 09:25:37;;;;;;;107.23;28.47;;;9.80;60.20;;;;;;4937131;29;20259;-96
2024/01/12 09:28:07;;;;;;;103.43;43.00;;;9.90;60.10;;;;;;4919806;29;20212;-95
2024/01/12 09:30:39;;;;;;;99.77;56.97;;;9.60;60.00;;;;;;4938021;29;20207;-95
2024/01/12 09:33:07;;;;;;;88.77;46.03;;;9.90;60.20;;;;;;4948676;28;20228;-95
2024/01/12 09:36:03;;;;;;;74.60;41.40;;;10.00;59.30;;;;;;4958390;28;20212;-96
2024/01/12 09:38:37;;;;;;;106.10;38.07;;;9.90;60.50;;;;;;4945290;28;20219;-95
2024/01/12 09:41:10;;;;;;;60.47;30.60;;;10.10;59.50;;;;;;4959134;28;20203;-95
2024/01/12 09:43:41;;;;;;;99.30;39.30;;;10.00;59.50;;;;;;4956403;28;20218;-95
2024/01/12 09:46:18;;;;;;;96.60;36.57;;;10.00;59.40;;;;;;4950017;29;20291;-95
2024/01/12 09:48:50;;;;;;;97.77;37.00;;;10.00;59.60;;;;;;4945926;29;20682;-95
2024/01/12 09:51:19;;;;;;;82.77;29.47;;;10.00;59.40;;;;;;4944138;29;20245;-93
2024/01/12 09:53:46;;;;;;;79.73;29.83;;;10.00;59.50;;;;;;4943335;29;20267;-95
2024/01/12 09:56:14;;;;;;;98.53;42.33;;;9.40;59.70;;;;;;4923537;29;20207;-94
2024/01/12 09:58:44;;;;;;;82.97;39.27;;;10.00;59.30;;;;;;4942137;29;20258;-94
2024/01/12 10:01:12;;;;;;;107.73;63.60;;;10.00;59.10;;;;;;4943303;29;20234;-94
2024/01/12 10:03:48;;;;;;;82.10;36.70;;;10.10;59.10;;;;;;4944124;29;20215;-95
2024/01/12 10:06:23;;;;;;;93.63;26.90;;;10.10;59.40;;;;;;4942890;29;20207;-94
2024/01/12 10:08:50;;;;;;;94.13;29.23;;;10.10;59.30;;;;;;4943958;29;20237;-94
2024/01/12 10:11:19;;;;;;;73.77;25.93;;;10.10;59.10;;;;;;4942929;29;20716;-94
2024/01/12 10:13:49;;;;;;;89.07;33.83;;;10.10;58.90;;;;;;4940922;29;20310;-96
2024/01/12 10:16:22;;;;;;;143.23;28.80;;;10.10;58.90;;;;;;4934660;29;20236;-94
2024/01/12 10:18:50;;;;;;;82.87;29.33;;;10.20;59.10;;;;;;4937280;28;20199;-95
2024/01/12 10:21:18;;;;;;;84.57;52.23;;;10.20;58.90;;;;;;4938123;29;20213;-94
2024/01/12 10:23:45;;;;;;;71.47;22.07;;;10.10;58.90;;;;;;4938979;29;20208;-94
2024/01/12 10:26:16;;;;;;;82.23;31.40;;;10.20;59.00;;;;;;4939865;29;20568;-95
2024/01/12 10:28:44;;;;;;;87.47;26.90;;;10.20;59.20;;;;;;4938617;29;20212;-93
2024/01/12 10:31:13;;;;;;;78.90;37.23;;;10.20;59.10;;;;;;4936829;29;20295;-94
2024/01/12 10:33:42;;;;;;;93.83;32.50;;;10.20;59.10;;;;;;4934616;29;20231;-95
2024/01/12 10:36:13;;;;;;;73.80;27.87;;;10.20;59.10;;;;;;4932917;29;20274;-94
2024/01/12 10:38:47;;;;;;;96.90;25.83;;;10.30;59.20;;;;;;4934825;29;20827;-94
2024/01/12 10:41:21;;;;;;;84.40;36.40;;;10.30;59.10;;;;;;4933821;29;20210;-94
2024/01/12 10:43:53;;;;;;;81.73;34.37;;;10.30;59.10;;;;;;4934818;29;20205;-95
2024/01/12 10:46:31;;;;;;;74.27;23.13;;;10.30;59.20;;;;;;4935059;29;20278;-95
2024/01/12 10:49:06;;;;;;;70.13;22.83;;;10.30;59.40;;;;;;4916149;29;20232;-95
2024/01/12 10:51:39;;;;;;;79.00;22.80;;;10.30;59.30;;;;;;4916572;29;20246;-95
2024/01/12 10:54:16;;;;;;;95.57;35.50;;;10.40;59.30;;;;;;4916495;29;20224;-94
2024/01/12 10:56:45;;;;;;;104.57;26.30;;;10.30;59.40;;;;;;4919616;29;20263;-95
2024/01/12 10:59:13;;;;;;;80.77;30.60;;;10.30;59.20;;;;;;4935658;29;20336;-95
2024/01/12 11:01:43;;;;;;;81.33;25.03;;;10.40;59.30;;;;;;4933495;29;20211;-95
2024/01/12 11:04:13;;;;;;;82.97;27.17;;;10.40;59.40;;;;;;4915578;29;20215;-96
2024/01/12 11:06:50;;;;;;;105.00;26.60;;;10.40;59.50;;;;;;4933452;29;20222;-95
2024/01/12 11:09:22;;;;;;;75.23;32.07;;;10.40;59.40;;;;;;4947013;29;20222;-96
2024/01/12 11:15:01;;;;;;;88.07;24.90;;;10.40;59.30;;;;;;4943761;29;20238;-95
2024/01/12 11:17:34;;;;;;;83.93;33.70;;;10.40;59.40;;;;;;4945020;29;20218;-95
2024/01/12 11:26:35;;;;;;;96.63;40.23;;;10.60;59.50;;;;;;4870742;29;20224;-96
2024/01/12 11:29:17;;;;;;;93.53;44.57;;;10.10;59.20;;;;;;4947337;29;20239;-95
2024/01/12 11:31:54;;;;;;;88.33;27.00;;;10.60;59.30;;;;;;4945391;29;20227;-95
2024/01/12 11:34:23;;;;;;;108.60;56.53;;;10.60;59.30;;;;;;4928448;29;20303;-95
2024/01/12 11:40:33;;;;;;;80.73;28.13;;;11.60;60.20;;;;;;4922379;29;20271;-96
2024/01/12 11:43:26;;;;;;;85.80;28.23;;;10.70;59.30;;;;;;4942668;29;20214;-95
2024/01/12 11:45:57;;;;;;;98.03;30.27;;;10.70;59.70;;;;;;4942853;29;20204;-96
2024/01/12 11:48:24;;;;;;;92.03;31.53;;;10.70;59.40;;;;;;4947201;29;20235;-96
2024/01/12 11:50:55;;;;;;;93.13;32.80;;;10.80;59.50;;;;;;4956444;28;20219;-95
2024/01/12 11:53:26;;;;;;;112.43;53.87;;;10.60;59.50;;;;;;4958906;29;20244;-96
2024/01/12 11:55:56;;;;;;;86.43;52.77;;;10.80;59.40;;;;;;4957416;29;20239;-95
2024/01/12 11:58:24;;;;;;;103.93;35.93;;;10.80;59.50;;;;;;4957490;29;20238;-95
2024/01/12 12:00:51;;;;;;;94.73;39.63;;;11.00;59.60;;;;;;4949309;29;20618;-95
2024/01/12 12:03:32;;;;;;;91.73;35.10;;;10.70;59.30;;;;;;4948759;29;20215;-95
2024/01/12 12:06:23;;;;;;;77.47;37.40;;;10.80;59.70;;;;;;4952748;29;20211;-95
2024/01/12 14:23:43;;;;;;;94.40;63.60;;;11.40;59.80;;;;;;1578777;23;20531;-96
2024/01/12 14:26:16;;;;;;;92.00;81.40;;;11.50;59.80;;;;;;4951053;28;20235;-96
2024/01/12 14:28:50;;;;;;;109.00;45.50;;;11.50;59.60;;;;;;4945316;29;20215;-96
2024/01/12 14:31:23;;;;;;;90.53;64.50;;;11.60;59.60;;;;;;4946262;29;20219;-96
2024/01/12 14:33:57;;;;;;;94.53;55.10;;;12.10;59.70;;;;;;4948044;29;20224;-96
2024/01/12 14:36:28;;;;;;;90.13;50.20;;;11.70;59.30;;;;;;4938361;29;20281;-96
2024/01/12 14:38:57;;;;;;;137.00;65.67;;;11.60;59.40;;;;;;4930658;29;20206;-96
2024/01/12 14:41:31;;;;;;;105.33;69.27;;;11.40;59.10;;;;;;4928899;29;20249;-96
2024/01/12 14:43:59;;;;;;;91.07;57.67;;;11.70;59.10;;;;;;4925696;29;20215;-96
2024/01/12 14:46:31;;;;;;;143.60;58.07;;;11.70;59.20;;;;;;4928250;29;20292;-96
2024/01/12 14:49:09;;;;;;;78.63;38.03;;;11.80;59.10;;;;;;4939038;29;20221;-96
2024/01/12 14:54:48;;;;;;;139.57;64.17;;;13.20;60.50;;;;;;4934166;29;20629;-96
2024/01/12 14:57:20;;;;;;;100.63;53.93;;;11.90;59.20;;;;;;4921456;29;20634;-96
2024/01/12 14:59:48;;;;;;;118.53;78.80;;;12.00;59.20;;;;;;4935600;29;20204;-96
2024/01/12 15:02:15;;;;;;;87.33;50.47;;;11.90;59.10;;;;;;4936950;29;20203;-96
2024/01/12 15:08:10;;;;;;;95.37;50.60;;;12.60;59.60;;;;;;4928737;29;20232;-96
2024/01/12 15:10:46;;;;;;;86.20;56.33;;;12.00;59.00;;;;;;4937247;29;20565;-96
2024/01/12 15:13:17;;;;;;;83.73;59.57;;;12.10;58.80;;;;;;4938769;29;20214;-96
2024/01/12 15:15:44;;;;;;;100.93;53.07;;;12.10;58.80;;;;;;4935426;29;20208;-96
2024/01/12 15:18:13;;;;;;;109.17;71.33;;;12.10;58.60;;;;;;4933601;29;20292;-96
2024/01/12 15:20:42;;;;;;;113.43;66.43;;;12.20;58.90;;;;;;4934221;29;20649;-96
2024/01/12 15:23:09;;;;;;;128.90;74.17;;;12.10;58.80;;;;;;4918753;29;20218;-96
2024/01/12 15:25:36;;;;;;;132.07;73.07;;;12.10;58.60;;;;;;4928121;29;20257;-96
2024/01/12 15:28:04;;;;;;;100.77;45.63;;;12.10;58.70;;;;;;4926850;29;20201;-96
2024/01/12 15:30:38;;;;;;;94.27;58.13;;;12.00;58.70;;;;;;4927778;29;20204;-96
2024/01/12 15:33:05;;;;;;;135.13;74.77;;;12.10;58.80;;;;;;4932150;29;20212;-96
2024/01/12 15:35:33;;;;;;;100.90;53.30;;;12.10;58.70;;;;;;4934968;29;21001;-96
2024/01/12 15:38:02;;;;;;;99.60;55.60;;;12.10;58.50;;;;;;4938515;28;20223;-96
2024/01/12 15:40:33;;;;;;;92.70;55.97;;;12.10;58.40;;;;;;4932134;29;20759;-95
2024/01/12 15:43:02;;;;;;;94.97;42.63;;;12.60;58.80;;;;;;4929089;29;20627;-96
2024/01/12 15:45:39;;;;;;;106.93;48.97;;;12.20;58.30;;;;;;4931015;29;20670;-96
2024/01/12 15:48:09;;;;;;;111.70;58.20;;;12.10;58.20;;;;;;4923910;29;20742;-96
2024/01/12 15:50:36;;;;;;;115.90;51.17;;;12.20;58.20;;;;;;4919203;29;20256;-96
2024/01/12 15:53:04;;;;;;;97.80;64.50;;;12.20;58.20;;;;;;4929888;29;20233;-96
2024/01/12 15:55:33;;;;;;;94.80;50.47;;;12.30;58.30;;;;;;4926555;29;20670;-96
2024/01/12 15:58:01;;;;;;;137.27;47.00;;;12.30;58.20;;;;;;4928543;29;20205;-96
2024/01/12 16:00:39;;;;;;;76.73;43.60;;;11.50;57.60;;;;;;4919958;29;20209;-96
2024/01/12 16:03:08;;;;;;;119.23;51.90;;;12.30;58.00;;;;;;4932417;29;20205;-96
2024/01/12 16:05:39;;;;;;;78.73;37.93;;;12.20;58.00;;;;;;4931933;29;20760;-96
2024/01/12 16:08:14;;;;;;;133.00;52.13;;;12.20;57.80;;;;;;4931872;29;20681;-96
2024/01/12 16:10:42;;;;;;;85.80;38.70;;;12.00;57.80;;;;;;4928885;29;20217;-96
2024/01/12 16:13:25;;;;;;;115.47;48.70;;;11.60;57.20;;;;;;4938090;29;20206;-96
2024/01/12 16:16:18;;;;;;;;;;;;;;;;;;;;;
2024/01/12 16:19:08;;;;;;;124.07;53.63;;;12.60;58.40;;;;;;4926426;29;20221;-96
2024/01/12 16:21:39;;;;;;;102.03;53.23;;;12.20;57.70;;;;;;4926072;29;20217;-96
2024/01/12 17:06:10;;;;;;;169.37;52.10;;;12.10;59.00;;;;;;5670041;23;20238;-96
2024/01/12 21:21:08;;;;;;;112.60;47.40;;;11.50;60.40;;;;;;4953362;28;20251;-96
2024/01/12 21:23:38;;;;;;;107.50;48.97;;;11.50;60.50;;;;;;4956006;28;20247;-96
2024/01/12 21:26:17;;;;;;;82.07;45.80;;;11.20;59.90;;;;;;4955012;28;20212;-96
2024/01/12 21:29:10;;;;;;;;;;;;;;;;;;;;;
2024/01/12 21:35:17;;;;;;;;;;;;;;;;;;;;;
2024/01/12 21:41:52;;;;;;;104.07;53.40;;;11.20;60.50;;;;;;4941522;28;20635;-96
2024/01/12 21:51:11;;;;;;;95.07;48.27;;;11.00;60.90;;;;;;4954946;28;20208;-96
2024/01/12 22:00:24;;;;;;;78.17;45.10;;;10.90;61.10;;;;;;4957969;29;20222;-96
2024/01/12 22:02:55;;;;;;;90.30;45.77;;;11.00;60.70;;;;;;4915932;29;20236;-96
2024/01/12 22:09:27;;;;;;;105.57;49.50;;;11.00;61.40;;;;;;4923462;29;20210;-96
2024/01/12 22:12:07;;;;;;;;;;;;;;;;;;;;;
2024/01/12 22:17:30;;;;;;;103.37;48.03;;;11.00;61.30;;;;;;4938018;29;20208;-96
2024/01/12 22:40:34;;;;;;;159.00;56.17;;;11.60;62.30;;;;;;4716892;30;20266;-96
2024/01/12 22:46:50;;;;;;;91.37;56.17;;;11.00;61.60;;;;;;4873439;29;20228;-96
2024/01/12 22:50:14;;;;;;;93.57;56.20;;;11.00;61.70;;;;;;4883570;29;20257;-96
2024/01/12 23:02:56;;;;;;;121.67;62.00;;;10.90;61.60;;;;;;4858888;29;20243;-96
2024/01/12 23:28:19;;;;;;;113.37;56.27;;;11.10;61.50;;;;;;4925849;29;20308;-96
2024/01/12 23:34:56;;;;;;;74.13;59.13;;;11.00;61.00;;;;;;4923748;29;20210;-96
2024/01/12 23:45:48;;;;;;;;;;;;;;;;;;;;;
2024/01/12 23:49:23;;;;;;;78.67;45.47;;;11.40;61.80;;;;;;4895168;29;20289;-96
